KHEQ

Holyoke Airport

Holyoke, Colorado, USA
METAR KHEQ 201610Z AUTO 36010KT 10SM CLR 18/05 A3025 RMK AO2
Observed Flight Rules
Aug-20 @ 16:10 UTC (13 minutes ago) Visual Flight Rules
Wind Visibility Clouds
360° at 10 knots 10 miles
  • Clear skies
Temperatures Readings
Current 18°C / 64°F
Dewpoint 5°C / 41°F
Humidity 43%
Altimeter 30.25" Hg
Pressure 1024 hPa
Elevation 1137
METAR KHEQ 201610Z AUTO 36010KT 10SM CLR 18/05 A3025 RMK AO2
Observed Flight Rules
Aug-20 @ 16:10 UTC
(13 minutes ago)
VFR
Wind Visibility
360° at 10 knots 10 miles
Clouds
  • Clear skies
Temperature Dewpoint
18°C / 64°F 5°C / 41°F
Humidity Altimeter Pressure
43% 30.25" Hg 1024 hPa